createdAt,value
2018-08-18T00:00:47.512Z,18.10
2018-08-18T00:03:22.684Z,18.00
2018-08-18T00:05:58.093Z,17.90
2018-08-18T00:08:33.308Z,17.80
2018-08-18T00:11:08.688Z,17.80
2018-08-18T00:13:56.142Z,17.70
2018-08-18T00:16:31.146Z,17.70
2018-08-18T00:19:06.655Z,17.60
2018-08-18T00:21:41.613Z,17.60
2018-08-18T00:24:16.630Z,17.70
2018-08-18T00:26:51.886Z,17.60
2018-08-18T00:29:26.749Z,17.50
2018-08-18T00:32:02.130Z,17.40
2018-08-18T00:34:41.841Z,17.30
2018-08-18T00:37:16.552Z,17.30
2018-08-18T00:39:52.124Z,17.30
2018-08-18T00:42:27.250Z,17.30
2018-08-18T00:44:56.841Z,17.30
2018-08-18T00:47:31.606Z,17.30
2018-08-18T00:50:07.353Z,17.20
2018-08-18T00:52:42.523Z,17.20
2018-08-18T00:55:17.992Z,17.20
2018-08-18T00:57:53.090Z,17.20
2018-08-18T01:00:28.262Z,17.20
2018-08-18T01:03:03.454Z,17.20
2018-08-18T01:05:38.727Z,17.10
2018-08-18T01:08:14.173Z,17.10
2018-08-18T01:10:49.065Z,17.00
2018-08-18T01:13:24.454Z,16.90
2018-08-18T01:15:59.163Z,16.90
2018-08-18T01:18:34.342Z,16.90
2018-08-18T01:21:09.599Z,16.90
2018-08-18T01:23:44.421Z,16.80
2018-08-18T01:26:19.546Z,16.90
2018-08-18T01:29:04.637Z,16.90
2018-08-18T01:31:40.424Z,16.90
2018-08-18T01:34:15.375Z,17.00
2018-08-18T01:36:50.880Z,17.00
2018-08-18T01:39:26.123Z,17.10
2018-08-18T01:42:01.046Z,17.10
2018-08-18T01:44:36.387Z,17.20
2018-08-18T01:47:11.355Z,17.20
2018-08-18T01:49:46.241Z,17.20
2018-08-18T01:52:24.568Z,17.20
2018-08-18T01:54:59.347Z,17.20
2018-08-18T01:57:34.675Z,17.20
2018-08-18T02:00:27.743Z,17.20
2018-08-18T02:02:57.255Z,17.30
2018-08-18T02:05:32.050Z,17.20
2018-08-18T02:08:07.179Z,17.00
2018-08-18T02:10:42.118Z,16.90
2018-08-18T02:13:17.282Z,16.90
2018-08-18T02:15:52.332Z,17.00
2018-08-18T02:18:27.309Z,16.90
2018-08-18T02:21:02.346Z,16.90
2018-08-18T02:23:37.359Z,16.90
2018-08-18T02:26:12.985Z,16.90
2018-08-18T02:28:48.223Z,16.90
2018-08-18T02:31:23.360Z,17.00
2018-08-18T02:33:58.727Z,17.00
2018-08-18T02:36:34.955Z,17.10
2018-08-18T02:39:10.004Z,17.10
2018-08-18T02:41:56.909Z,17.10
2018-08-18T02:44:31.910Z,17.10
2018-08-18T02:47:06.798Z,17.10
2018-08-18T02:49:46.415Z,17.10
2018-08-18T02:52:27.549Z,17.10
2018-08-18T02:54:58.505Z,17.10
2018-08-18T02:57:35.727Z,17.00
2018-08-18T03:00:20.839Z,17.00
2018-08-18T03:02:55.929Z,17.00
2018-08-18T03:05:31.115Z,16.80
2018-08-18T03:08:06.082Z,16.70
2018-08-18T03:10:41.834Z,16.50
2018-08-18T03:13:17.277Z,16.50
2018-08-18T03:15:52.310Z,16.30
2018-08-18T03:18:52.928Z,16.30
2018-08-18T03:21:33.110Z,16.40
2018-08-18T03:24:23.755Z,16.50
2018-08-18T03:26:59.374Z,16.50
2018-08-18T03:29:53.022Z,16.50
2018-08-18T03:32:27.980Z,16.60
2018-08-18T03:35:03.065Z,16.60
2018-08-18T03:37:38.123Z,16.50
2018-08-18T03:40:13.200Z,16.60
2018-08-18T03:42:48.185Z,16.50
2018-08-18T03:45:23.365Z,16.50
2018-08-18T03:47:58.180Z,16.60
2018-08-18T03:50:45.580Z,16.50
2018-08-18T03:53:20.784Z,16.50
2018-08-18T03:55:55.530Z,16.50
2018-08-18T03:58:40.433Z,16.50
2018-08-18T04:01:15.482Z,16.50
2018-08-18T04:03:50.590Z,16.40
2018-08-18T04:06:25.582Z,16.40
2018-08-18T04:09:00.478Z,16.40
2018-08-18T04:11:35.257Z,16.40
2018-08-18T04:14:10.620Z,16.30
2018-08-18T04:16:48.985Z,16.30
2018-08-18T04:19:24.076Z,16.20
2018-08-18T04:21:59.068Z,16.20
2018-08-18T04:24:39.122Z,16.10
2018-08-18T04:27:20.304Z,16.10
2018-08-18T04:29:55.455Z,16.10
2018-08-18T04:32:30.985Z,16.10
2018-08-18T04:35:06.278Z,15.90
2018-08-18T04:37:41.350Z,15.90
2018-08-18T04:40:16.078Z,15.90
2018-08-18T04:42:49.098Z,16.00
2018-08-18T04:45:24.126Z,16.00
2018-08-18T04:47:59.189Z,16.10
2018-08-18T04:50:34.314Z,16.10
2018-08-18T04:53:09.354Z,16.10
2018-08-18T04:55:44.672Z,16.10
2018-08-18T04:58:19.631Z,16.00
2018-08-18T05:00:55.525Z,16.00
2018-08-18T05:03:30.498Z,15.90
2018-08-18T05:06:05.766Z,15.90
2018-08-18T05:08:40.714Z,15.80
2018-08-18T05:11:15.773Z,15.70
2018-08-18T05:13:51.198Z,15.70
2018-08-18T05:16:26.343Z,15.70
2018-08-18T05:19:01.459Z,15.80
2018-08-18T05:21:37.170Z,15.90
2018-08-18T05:24:24.861Z,15.90
2018-08-18T05:27:05.261Z,15.90
2018-08-18T05:29:40.219Z,16.00
2018-08-18T05:32:15.254Z,16.00
2018-08-18T05:34:50.242Z,16.10
2018-08-18T05:37:25.169Z,16.10
2018-08-18T05:40:00.710Z,16.20
2018-08-18T05:42:42.465Z,16.20
2018-08-18T05:45:32.194Z,16.20
2018-08-18T05:48:07.542Z,16.30
2018-08-18T05:50:42.571Z,16.30
2018-08-18T05:53:19.763Z,16.30
2018-08-18T05:55:55.170Z,16.40
2018-08-18T05:59:02.361Z,16.50
2018-08-18T06:01:38.713Z,16.40
2018-08-18T06:04:17.083Z,16.40
2018-08-18T06:06:53.113Z,16.50
2018-08-18T06:09:27.982Z,16.50
2018-08-18T06:12:18.616Z,16.50
2018-08-18T06:14:53.519Z,16.50
2018-08-18T06:17:32.591Z,16.50
2018-08-18T06:20:09.909Z,16.50
2018-08-18T06:22:45.337Z,16.60
2018-08-18T06:25:20.742Z,16.70
2018-08-18T06:27:55.680Z,16.70
2018-08-18T06:30:30.654Z,16.80
2018-08-18T06:33:05.668Z,16.80
2018-08-18T06:35:40.663Z,16.80
2018-08-18T06:38:16.323Z,16.90
2018-08-18T06:40:57.794Z,16.90
2018-08-18T06:43:34.008Z,16.90
2018-08-18T06:46:09.363Z,17.00
2018-08-18T06:48:44.810Z,17.10
2018-08-18T06:51:19.840Z,17.10
2018-08-18T06:53:54.916Z,17.20
2018-08-18T06:56:30.469Z,17.20
2018-08-18T06:59:09.432Z,17.20
2018-08-18T07:01:44.508Z,17.20
2018-08-18T07:04:24.811Z,17.30
2018-08-18T07:06:59.767Z,17.30
2018-08-18T07:09:35.041Z,17.30
2018-08-18T07:12:13.126Z,17.30
2018-08-18T07:14:48.014Z,17.40
2018-08-18T07:17:22.924Z,17.40
2018-08-18T07:19:58.259Z,17.40
2018-08-18T07:22:33.199Z,17.40
2018-08-18T07:25:08.252Z,17.50
2018-08-18T07:27:43.601Z,17.50
2018-08-18T07:30:18.682Z,17.50
2018-08-18T07:32:53.877Z,17.60
2018-08-18T07:35:29.182Z,17.50
2018-08-18T07:38:07.802Z,17.60
2018-08-18T07:40:43.042Z,17.60
2018-08-18T07:43:20.766Z,17.70
2018-08-18T07:45:57.084Z,17.70
2018-08-18T07:48:32.554Z,17.70
2018-08-18T07:51:08.078Z,17.80
2018-08-18T07:53:43.195Z,17.80
2018-08-18T07:56:18.049Z,17.90
2018-08-18T07:58:52.896Z,17.90
2018-08-18T08:01:28.182Z,17.90
2018-08-18T08:04:03.236Z,18.00
2018-08-18T08:06:38.479Z,18.00
2018-08-18T08:09:13.441Z,18.10
2018-08-18T08:11:48.401Z,18.10
2018-08-18T08:14:23.769Z,18.20
2018-08-18T08:16:58.851Z,18.20
2018-08-18T08:19:33.826Z,18.20
2018-08-18T08:22:10.315Z,18.30
2018-08-18T08:24:45.857Z,18.40
2018-08-18T08:27:20.679Z,18.40
2018-08-18T08:29:55.843Z,18.50
2018-08-18T08:32:30.859Z,18.50
2018-08-18T08:35:06.235Z,18.60
2018-08-18T08:37:41.400Z,18.60
2018-08-18T08:40:17.807Z,18.70
2018-08-18T08:42:53.248Z,18.70
2018-08-18T08:45:28.239Z,18.80
2018-08-18T08:48:03.209Z,18.90
2018-08-18T08:50:38.425Z,18.90
2018-08-18T08:53:13.795Z,19.00
2018-08-18T08:55:48.805Z,19.10
2018-08-18T08:58:23.974Z,19.20
2018-08-18T09:00:59.930Z,19.20
2018-08-18T09:03:35.161Z,19.20
2018-08-18T09:06:10.897Z,19.30
2018-08-18T09:08:50.309Z,19.30
2018-08-18T09:11:25.198Z,19.40
2018-08-18T09:14:07.304Z,19.40
2018-08-18T09:16:42.281Z,19.50
2018-08-18T09:19:19.349Z,19.60
2018-08-18T09:21:56.669Z,19.60
2018-08-18T09:24:32.579Z,19.70
2018-08-18T09:27:07.595Z,19.70
2018-08-18T09:29:46.547Z,19.80
2018-08-18T09:32:22.088Z,19.90
2018-08-18T09:34:56.868Z,19.90
2018-08-18T09:37:32.072Z,20.00
2018-08-18T09:40:07.195Z,20.10
2018-08-18T09:42:42.417Z,20.00
2018-08-18T09:45:17.417Z,20.00
2018-08-18T09:47:52.601Z,20.10
2018-08-18T09:50:27.312Z,20.20
2018-08-18T09:53:02.628Z,20.40
2018-08-18T09:55:37.857Z,20.50
2018-08-18T09:58:13.150Z,20.60
2018-08-18T10:00:48.042Z,20.70
2018-08-18T10:03:23.165Z,20.80
2018-08-18T10:05:58.239Z,20.90
2018-08-18T10:08:33.306Z,21.00
2018-08-18T10:11:08.204Z,21.00
2018-08-18T10:13:43.866Z,20.90
2018-08-18T10:16:19.220Z,20.90
2018-08-18T10:18:54.747Z,20.90
2018-08-18T10:21:30.088Z,21.00
2018-08-18T10:24:05.018Z,21.00
2018-08-18T10:26:41.012Z,21.00
2018-08-18T10:29:21.339Z,21.20
2018-08-18T10:31:57.550Z,21.30
2018-08-18T10:34:33.630Z,21.40
2018-08-18T10:37:08.672Z,21.50
2018-08-18T10:39:44.226Z,21.50
2018-08-18T10:42:24.842Z,21.50
2018-08-18T10:45:03.915Z,21.60
2018-08-18T10:47:39.121Z,21.50
2018-08-18T10:50:25.475Z,21.50
2018-08-18T10:53:00.625Z,21.50
2018-08-18T10:55:35.915Z,21.60
2018-08-18T10:58:11.172Z,21.60
2018-08-18T11:00:46.548Z,21.60
2018-08-18T11:03:21.756Z,21.60
2018-08-18T11:05:57.833Z,21.60
2018-08-18T11:08:33.359Z,21.70
2018-08-18T11:11:02.995Z,21.70
2018-08-18T11:13:32.677Z,21.80
2018-08-18T11:16:03.090Z,21.90
2018-08-18T11:18:32.526Z,21.90
2018-08-18T11:21:02.519Z,22.00
2018-08-18T11:23:32.757Z,22.10
2018-08-18T11:26:02.069Z,22.20
2018-08-18T11:28:32.412Z,22.30
2018-08-18T11:31:02.008Z,22.40
2018-08-18T11:33:39.552Z,22.50
2018-08-18T11:36:11.990Z,22.60
2018-08-18T11:38:41.487Z,22.70
2018-08-18T11:41:11.397Z,22.80
2018-08-18T11:43:47.532Z,22.80
2018-08-18T11:46:17.060Z,22.70
2018-08-18T11:48:46.480Z,22.70
2018-08-18T11:51:16.170Z,22.70
2018-08-18T11:53:57.951Z,22.70
2018-08-18T11:56:39.340Z,22.70
2018-08-18T11:59:15.487Z,22.90
2018-08-18T12:01:54.038Z,23.00
2018-08-18T12:04:29.301Z,23.10
2018-08-18T12:07:04.430Z,23.10
2018-08-18T12:09:43.923Z,23.10
2018-08-18T12:12:19.164Z,23.10
2018-08-18T12:14:55.372Z,23.20
2018-08-18T12:17:30.249Z,23.20
2018-08-18T12:20:05.718Z,23.30
2018-08-18T12:22:40.594Z,23.30
2018-08-18T12:25:15.785Z,23.30
2018-08-18T12:27:54.350Z,23.40
2018-08-18T12:30:31.322Z,23.50
2018-08-18T12:33:11.613Z,23.60
2018-08-18T12:35:47.043Z,23.60
2018-08-18T12:38:22.443Z,23.80
2018-08-18T12:40:57.682Z,23.70
2018-08-18T12:43:50.444Z,23.70
2018-08-18T12:46:34.474Z,23.70
2018-08-18T12:49:09.828Z,23.70
2018-08-18T12:51:45.762Z,23.70
2018-08-18T12:54:21.470Z,23.70
2018-08-18T12:56:56.446Z,23.80
2018-08-18T12:59:31.850Z,23.80
2018-08-18T13:02:06.962Z,23.90
2018-08-18T13:04:42.422Z,23.90
2018-08-18T13:07:17.410Z,23.90
2018-08-18T13:10:01.364Z,23.90
2018-08-18T13:12:36.625Z,24.00
2018-08-18T13:15:11.719Z,24.10
2018-08-18T13:17:47.035Z,24.10
2018-08-18T13:20:26.710Z,24.30
2018-08-18T13:22:56.942Z,24.40
2018-08-18T13:25:32.057Z,24.40
2018-08-18T13:28:07.302Z,24.40
2018-08-18T13:30:42.786Z,24.40
2018-08-18T13:33:17.882Z,24.40
2018-08-18T13:35:53.187Z,24.60
2018-08-18T13:38:31.400Z,24.60
2018-08-18T13:41:06.202Z,24.70
2018-08-18T13:43:45.135Z,24.70
2018-08-18T13:46:28.467Z,24.80
2018-08-18T13:49:04.507Z,24.80
2018-08-18T13:51:39.474Z,24.70
2018-08-18T13:54:14.950Z,24.80
2018-08-18T13:56:50.868Z,24.80
2018-08-18T13:59:38.788Z,25.00
2018-08-18T14:02:13.680Z,25.00
2018-08-18T14:04:48.591Z,25.00
2018-08-18T14:07:17.818Z,25.10
2018-08-18T14:10:00.496Z,25.10
2018-08-18T14:12:36.757Z,25.10
2018-08-18T14:15:12.728Z,25.20
2018-08-18T14:17:48.016Z,25.20
2018-08-18T14:20:23.197Z,25.20
2018-08-18T14:23:08.766Z,25.30
2018-08-18T14:25:44.039Z,25.40
2018-08-18T14:28:19.650Z,25.40
2018-08-18T14:30:54.846Z,25.60
2018-08-18T14:33:30.654Z,25.60
2018-08-18T14:36:11.927Z,25.70
2018-08-18T14:38:47.625Z,25.80
2018-08-18T14:41:36.138Z,25.80
2018-08-18T14:44:11.227Z,25.90
2018-08-18T14:46:47.141Z,26.00
2018-08-18T14:49:22.169Z,26.10
2018-08-18T14:51:57.993Z,26.00
2018-08-18T14:54:33.797Z,26.00
2018-08-18T14:57:08.877Z,26.00
2018-08-18T14:59:43.919Z,26.00
2018-08-18T15:02:18.917Z,26.00
2018-08-18T15:04:54.536Z,26.00
2018-08-18T15:07:33.584Z,26.10
2018-08-18T15:10:08.461Z,26.10
2018-08-18T15:12:45.242Z,26.00
2018-08-18T15:15:20.073Z,25.90
2018-08-18T15:17:58.860Z,26.00
2018-08-18T15:20:35.197Z,26.00
2018-08-18T15:23:11.304Z,26.00
2018-08-18T15:25:47.351Z,26.10
2018-08-18T15:28:22.419Z,26.20
2018-08-18T15:30:57.263Z,26.10
2018-08-18T15:33:32.465Z,26.10
2018-08-18T15:36:17.259Z,26.10
2018-08-18T15:38:52.387Z,26.20
2018-08-18T15:41:27.514Z,26.10
2018-08-18T15:44:05.522Z,26.10
2018-08-18T15:46:41.042Z,26.10
2018-08-18T15:49:16.112Z,26.00
2018-08-18T15:51:51.254Z,25.80
2018-08-18T15:54:26.426Z,25.80
2018-08-18T15:57:01.501Z,25.70
2018-08-18T15:59:37.270Z,25.70
2018-08-18T16:02:12.280Z,25.60
2018-08-18T16:04:47.505Z,25.50
2018-08-18T16:07:22.374Z,25.50
2018-08-18T16:09:58.109Z,25.60
2018-08-18T16:12:33.217Z,25.50
2018-08-18T16:15:08.162Z,25.40
2018-08-18T16:17:43.224Z,25.40
2018-08-18T16:20:21.238Z,25.40
2018-08-18T16:22:57.639Z,25.30
2018-08-18T16:25:38.294Z,25.30
2018-08-18T16:28:13.764Z,25.20
2018-08-18T16:30:49.096Z,25.10
2018-08-18T16:33:24.092Z,25.00
2018-08-18T16:35:59.621Z,25.00
2018-08-18T16:38:34.623Z,25.00
2018-08-18T16:41:09.977Z,25.00
2018-08-18T16:43:44.951Z,25.10
2018-08-18T16:46:30.526Z,25.10
2018-08-18T16:49:05.668Z,25.30
2018-08-18T16:51:40.988Z,25.50
2018-08-18T16:54:22.826Z,25.60
2018-08-18T16:56:58.372Z,25.70
2018-08-18T16:59:36.536Z,26.00
2018-08-18T17:02:43.442Z,26.10
2018-08-18T17:05:18.411Z,26.10
2018-08-18T17:07:53.813Z,26.10
2018-08-18T17:10:29.706Z,25.80
2018-08-18T17:13:04.839Z,25.60
2018-08-18T17:15:40.420Z,25.40
2018-08-18T17:18:15.419Z,25.30
2018-08-18T17:20:55.403Z,25.20
2018-08-18T17:23:31.844Z,25.20
2018-08-18T17:26:07.393Z,25.00
2018-08-18T17:28:42.682Z,24.90
2018-08-18T17:31:17.865Z,24.80
2018-08-18T17:33:53.233Z,24.60
2018-08-18T17:36:28.410Z,24.50
2018-08-18T17:39:04.208Z,24.50
2018-08-18T17:41:39.411Z,24.50
2018-08-18T17:44:14.399Z,24.40
2018-08-18T17:46:53.227Z,24.30
2018-08-18T17:49:28.547Z,24.20
2018-08-18T17:52:07.983Z,24.10
2018-08-18T17:54:44.346Z,24.00
2018-08-18T17:57:19.326Z,24.00
2018-08-18T17:59:54.488Z,23.90
2018-08-18T18:02:29.758Z,23.80
2018-08-18T18:05:08.366Z,23.70
2018-08-18T18:07:45.592Z,23.60
2018-08-18T18:10:22.492Z,23.50
2018-08-18T18:12:57.924Z,23.50
2018-08-18T18:15:37.076Z,23.50
2018-08-18T18:18:20.033Z,23.40
2018-08-18T18:20:55.883Z,23.30
2018-08-18T18:23:31.237Z,23.30
2018-08-18T18:26:07.262Z,23.20
2018-08-18T18:28:42.627Z,23.20
2018-08-18T18:31:17.767Z,23.20
2018-08-18T18:34:02.056Z,23.10
2018-08-18T18:36:37.339Z,23.10
2018-08-18T18:41:47.888Z,23.10
2018-08-18T18:44:23.228Z,23.10
2018-08-18T18:46:58.183Z,23.00
2018-08-18T18:49:33.551Z,22.90
2018-08-18T18:52:08.659Z,22.80
2018-08-18T18:54:43.899Z,22.70
2018-08-18T18:57:19.358Z,22.70
2018-08-18T19:00:00.277Z,22.70
2018-08-18T19:02:41.058Z,22.60
2018-08-18T19:05:22.686Z,22.60
2018-08-18T19:08:10.794Z,22.60
2018-08-18T19:10:46.060Z,22.50
2018-08-18T19:13:20.952Z,22.50
2018-08-18T19:15:56.339Z,22.40
2018-08-18T19:18:31.664Z,22.30
2018-08-18T19:21:06.666Z,22.20
2018-08-18T19:23:41.769Z,22.20
2018-08-18T19:26:17.154Z,22.10
2018-08-18T19:28:52.283Z,22.10
2018-08-18T19:31:32.439Z,22.10
2018-08-18T19:34:13.454Z,22.00
2018-08-18T19:36:59.135Z,22.00
2018-08-18T19:39:35.294Z,21.90
2018-08-18T19:42:17.167Z,21.80
2018-08-18T19:44:53.287Z,21.80
2018-08-18T19:47:36.043Z,21.70
2018-08-18T19:50:11.290Z,21.70
2018-08-18T19:52:46.264Z,21.70
2018-08-18T19:55:21.481Z,21.70
2018-08-18T19:57:56.345Z,21.60
2018-08-18T20:00:31.636Z,21.60
2018-08-18T20:03:11.189Z,21.60
2018-08-18T20:05:46.747Z,21.60
2018-08-18T20:08:23.194Z,21.60
2018-08-18T20:11:00.786Z,21.50
2018-08-18T20:13:35.868Z,21.50
2018-08-18T20:16:11.260Z,21.50
2018-08-18T20:18:46.344Z,21.50
2018-08-18T20:21:21.532Z,21.50
2018-08-18T20:23:56.674Z,21.50
2018-08-18T20:26:31.818Z,21.50
2018-08-18T20:29:12.952Z,21.50
2018-08-18T20:32:03.854Z,21.50
2018-08-18T20:34:39.302Z,21.40
2018-08-18T20:37:15.152Z,21.40
2018-08-18T20:39:50.279Z,21.30
2018-08-18T20:42:30.792Z,21.30
2018-08-18T20:45:06.444Z,21.20
2018-08-18T20:47:43.318Z,21.20
2018-08-18T20:50:18.276Z,21.10
2018-08-18T20:52:53.712Z,21.10
2018-08-18T20:55:28.627Z,21.10
2018-08-18T20:58:03.779Z,21.10
2018-08-18T21:00:38.569Z,21.00
2018-08-18T21:03:13.473Z,21.00
2018-08-18T21:05:48.606Z,20.90
2018-08-18T21:08:23.904Z,20.90
2018-08-18T21:10:59.267Z,20.90
2018-08-18T21:13:34.801Z,20.80
2018-08-18T21:16:10.297Z,20.80
2018-08-18T21:18:45.530Z,20.80
2018-08-18T21:21:36.079Z,20.80
2018-08-18T21:24:11.673Z,20.70
2018-08-18T21:26:47.628Z,20.60
2018-08-18T21:29:24.257Z,20.60
2018-08-18T21:31:59.139Z,20.60
2018-08-18T21:34:44.037Z,20.60
2018-08-18T21:37:20.120Z,20.50
2018-08-18T21:39:54.944Z,20.50
2018-08-18T21:42:30.096Z,20.40
2018-08-18T21:45:07.209Z,20.40
2018-08-18T21:47:42.281Z,20.40
2018-08-18T21:50:17.597Z,20.40
2018-08-18T21:52:52.652Z,20.40
2018-08-18T21:55:28.900Z,20.40
2018-08-18T21:58:04.327Z,20.40
2018-08-18T22:00:46.958Z,20.40
2018-08-18T22:03:22.211Z,20.40
2018-08-18T22:05:57.691Z,20.30
2018-08-18T22:08:32.833Z,20.30
2018-08-18T22:11:08.049Z,20.30
2018-08-18T22:13:47.381Z,20.20
2018-08-18T22:16:23.355Z,20.20
2018-08-18T22:19:02.918Z,20.30
2018-08-18T22:21:38.419Z,20.20
2018-08-18T22:24:13.487Z,20.20
2018-08-18T22:26:48.563Z,20.20
2018-08-18T22:29:24.191Z,20.10
2018-08-18T22:31:59.733Z,20.10
2018-08-18T22:34:35.004Z,20.10
2018-08-18T22:37:13.947Z,20.10
2018-08-18T22:39:49.145Z,20.10
2018-08-18T22:42:24.530Z,20.10
2018-08-18T22:45:09.479Z,20.20
2018-08-18T22:47:45.495Z,20.20
2018-08-18T22:50:20.985Z,20.10
2018-08-18T22:53:01.259Z,20.10
2018-08-18T22:55:36.090Z,20.10
2018-08-18T22:58:11.156Z,20.10
2018-08-18T23:00:50.187Z,20.10
2018-08-18T23:03:26.646Z,20.10
2018-08-18T23:06:01.980Z,20.10
2018-08-18T23:08:37.049Z,20.00
2018-08-18T23:11:12.066Z,20.00
2018-08-18T23:13:46.974Z,19.90
2018-08-18T23:16:22.215Z,19.90
2018-08-18T23:18:57.274Z,19.80
2018-08-18T23:21:32.536Z,19.80
2018-08-18T23:24:21.383Z,19.80
2018-08-18T23:26:50.592Z,19.80
2018-08-18T23:29:26.398Z,19.80
2018-08-18T23:32:11.027Z,19.80
2018-08-18T23:34:45.935Z,19.80
2018-08-18T23:37:21.145Z,19.80
2018-08-18T23:39:57.092Z,19.70
2018-08-18T23:42:32.256Z,19.70
2018-08-18T23:45:07.080Z,19.70
2018-08-18T23:47:41.962Z,19.60
2018-08-18T23:50:16.895Z,19.60
2018-08-18T23:53:02.996Z,19.60
2018-08-18T23:55:32.540Z,19.60
2018-08-18T23:58:07.558Z,19.60
